Time;durP1;ratioP1;P1;durP2;ratioP2;P2;SDS_P1;SDS_P2;PMS_P1;PMS_P2;Temp;Humidity;BMP_temperature;BMP_pressure;BME280_temperature;BME280_humidity;BME280_pressure;Samples;Min_cycle;Max_cycle;Signal;HPM_P1;HPM_P2
2022/10/17 00:01:40;;;;;;;14.77;2.50;;;18.40;99.90;;;;;;5090253;28;20266;-74
2022/10/17 00:04:06;;;;;;;4.97;2.70;;;17.80;99.90;;;;;;5090296;28;20590;-74
2022/10/17 00:06:31;;;;;;;5.00;2.57;;;17.40;99.90;;;;;;5088888;28;20185;-74
2022/10/17 00:08:57;;;;;;;14.67;3.00;;;17.10;99.90;;;;;;5090416;28;20235;-74
2022/10/17 00:11:23;;;;;;;4.83;2.93;;;16.90;99.90;;;;;;5090670;28;20268;-74
2022/10/17 00:13:52;;;;;;;4.67;2.60;;;16.70;99.90;;;;;;5091400;28;20213;-74
2022/10/17 00:16:31;;;;;;;2.60;2.30;;;16.50;99.90;;;;;;5088694;28;20426;-74
2022/10/17 00:18:56;;;;;;;4.73;2.50;;;16.40;99.90;;;;;;5088512;28;20485;-74
2022/10/17 00:21:23;;;;;;;4.90;2.40;;;16.30;99.90;;;;;;5088612;28;20428;-74
2022/10/17 00:23:49;;;;;;;11.90;2.43;;;16.10;99.90;;;;;;5088531;28;20208;-74
2022/10/17 00:26:15;;;;;;;7.70;2.50;;;16.10;99.90;;;;;;5089941;28;20884;-74
2022/10/17 00:28:42;;;;;;;3.10;1.90;;;16.00;99.90;;;;;;5089797;28;20419;-73
2022/10/17 00:31:07;;;;;;;4.20;2.13;;;15.90;99.90;;;;;;5088454;28;20421;-73
2022/10/17 00:33:34;;;;;;;18.23;2.60;;;15.80;99.90;;;;;;5089619;28;20967;-74
2022/10/17 00:36:15;;;;;;;4.00;2.60;;;15.70;99.90;;;;;;5089841;28;20235;-73
2022/10/17 00:38:42;;;;;;;2.93;2.40;;;15.60;99.90;;;;;;5089598;28;20458;-73
2022/10/17 00:41:10;;;;;;;3.60;2.23;;;15.50;99.90;;;;;;5089023;28;20423;-73
2022/10/17 00:43:57;;;;;;;2.80;2.17;;;15.50;99.90;;;;;;5088055;28;20944;-73
2022/10/17 00:46:28;;;;;;;5.33;2.53;;;15.40;99.90;;;;;;5089577;28;20413;-73
2022/10/17 00:48:57;;;;;;;4.93;1.90;;;15.40;99.90;;;;;;5071680;28;20417;-73
2022/10/17 00:51:31;;;;;;;6.83;2.60;;;15.40;99.90;;;;;;5089620;28;20429;-73
2022/10/17 00:53:58;;;;;;;5.27;1.93;;;15.30;99.90;;;;;;5089301;28;20431;-73
2022/10/17 00:56:24;;;;;;;2.50;2.30;;;15.30;99.90;;;;;;5089285;28;20460;-74
2022/10/17 00:58:50;;;;;;;4.67;2.10;;;15.20;99.90;;;;;;5087737;28;20469;-73
2022/10/17 01:01:16;;;;;;;4.20;1.67;;;15.20;99.90;;;;;;5089178;28;20922;-73
2022/10/17 01:03:42;;;;;;;4.70;2.03;;;15.20;99.90;;;;;;5087678;28;20631;-73
2022/10/17 01:06:07;;;;;;;2.00;1.80;;;15.10;99.90;;;;;;5089178;28;20613;-73
2022/10/17 01:08:33;;;;;;;2.10;1.70;;;15.10;99.90;;;;;;5087660;28;20491;-74
2022/10/17 01:11:17;;;;;;;10.87;2.00;;;15.10;99.90;;;;;;5089018;28;20274;-74
2022/10/17 01:13:52;;;;;;;5.47;2.00;;;15.00;99.90;;;;;;5087754;28;20952;-74
2022/10/17 01:16:44;;;;;;;2.43;2.00;;;15.00;99.90;;;;;;5089009;28;20406;-74
2022/10/17 01:19:25;;;;;;;4.20;2.27;;;14.90;99.90;;;;;;5087368;28;20468;-74
2022/10/17 01:21:56;;;;;;;9.27;2.60;;;14.90;99.90;;;;;;5088828;28;20932;-74
2022/10/17 01:24:49;;;;;;;10.60;2.30;;;14.80;99.90;;;;;;5088836;28;20450;-74
2022/10/17 01:27:23;;;;;;;5.33;1.93;;;14.70;99.90;;;;;;5089347;28;20416;-74
2022/10/17 01:29:59;;;;;;;8.53;2.63;;;14.60;99.90;;;;;;5087420;28;20421;-74
2022/10/17 01:32:44;;;;;;;3.90;2.20;;;14.50;99.90;;;;;;5087271;28;20442;-74
2022/10/17 01:35:14;;;;;;;3.50;1.57;;;14.40;99.90;;;;;;5088815;28;20420;-73
2022/10/17 01:37:49;;;;;;;2.50;2.00;;;14.30;99.90;;;;;;5089148;28;20465;-74
2022/10/17 01:40:29;;;;;;;12.10;2.80;;;14.20;99.90;;;;;;5088972;28;20420;-74
2022/10/17 01:43:04;;;;;;;2.50;1.87;;;14.10;99.90;;;;;;5070985;28;20964;-73
2022/10/17 01:45:52;;;;;;;2.33;1.67;;;14.10;99.90;;;;;;5089458;28;20411;-73
2022/10/17 01:48:22;;;;;;;1.93;1.73;;;14.10;99.90;;;;;;5089663;28;20431;-74
2022/10/17 01:50:53;;;;;;;3.20;1.90;;;14.00;99.90;;;;;;5089571;28;20453;-74
2022/10/17 01:53:26;;;;;;;4.57;1.57;;;14.00;99.90;;;;;;5088028;28;20432;-74
2022/10/17 01:55:54;;;;;;;3.20;2.30;;;13.80;99.90;;;;;;5089496;28;20630;-73
2022/10/17 01:58:26;;;;;;;4.67;2.33;;;13.80;99.90;;;;;;5088954;28;20476;-73
2022/10/17 02:00:55;;;;;;;1.73;1.63;;;13.70;99.90;;;;;;5088010;28;20791;-73
2022/10/17 02:03:21;;;;;;;3.33;2.20;;;13.70;99.90;;;;;;5054616;28;20440;-73
2022/10/17 02:05:47;;;;;;;2.23;2.03;;;13.60;99.90;;;;;;5089299;28;20416;-74
2022/10/17 02:08:23;;;;;;;1.80;1.70;;;13.50;99.90;;;;;;5089228;28;20980;-73
2022/10/17 02:11:04;;;;;;;7.00;2.10;;;13.60;99.90;;;;;;5089222;28;20443;-74
2022/10/17 02:13:33;;;;;;;2.37;2.17;;;13.70;99.90;;;;;;5087534;28;20451;-74
2022/10/17 02:16:08;;;;;;;1.87;1.67;;;13.60;99.90;;;;;;5089056;28;20912;-74
2022/10/17 02:19:10;;;;;;;3.50;1.73;;;13.60;99.90;;;;;;5088919;28;20468;-74
2022/10/17 02:21:48;;;;;;;2.70;2.03;;;13.50;99.90;;;;;;5071528;28;20452;-74
2022/10/17 02:24:44;;;;;;;4.00;2.10;;;13.40;99.90;;;;;;5087511;28;20944;-74
2022/10/17 02:27:43;;;;;;;5.37;2.30;;;13.40;99.90;;;;;;5089042;28;20500;-74
2022/10/17 02:30:31;;;;;;;8.27;1.90;;;13.40;99.90;;;;;;5089180;28;20415;-74
2022/10/17 02:33:21;;;;;;;5.00;2.07;;;13.40;99.90;;;;;;5088985;28;20458;-73
2022/10/17 02:35:53;;;;;;;5.43;1.77;;;13.30;99.90;;;;;;5088888;28;20505;-73
2022/10/17 02:38:20;;;;;;;3.63;2.20;;;13.60;99.90;;;;;;5088905;28;20486;-74
2022/10/17 02:40:49;;;;;;;5.90;1.67;;;13.50;99.90;;;;;;5089037;28;20865;-74
2022/10/17 02:43:14;;;;;;;1.70;1.60;;;13.40;99.90;;;;;;5087528;28;20436;-74
2022/10/17 02:45:40;;;;;;;5.17;1.80;;;13.30;99.90;;;;;;5087569;28;20907;-74
2022/10/17 02:48:29;;;;;;;1.83;1.73;;;13.30;99.90;;;;;;5088726;28;20250;-74
2022/10/17 02:51:13;;;;;;;6.20;1.97;;;13.30;99.90;;;;;;5088765;28;20428;-74
2022/10/17 02:53:41;;;;;;;7.03;1.70;;;13.30;99.90;;;;;;5088787;28;20453;-73
2022/10/17 02:56:16;;;;;;;2.90;2.07;;;13.30;99.90;;;;;;5088869;28;20451;-73
2022/10/17 02:58:44;;;;;;;10.23;1.67;;;13.30;99.90;;;;;;5087170;28;20833;-73
2022/10/17 03:01:11;;;;;;;7.13;2.23;;;13.30;99.90;;;;;;5088537;28;20416;-73
2022/10/17 03:03:36;;;;;;;3.40;1.80;;;13.30;99.90;;;;;;5088149;28;20511;-73
2022/10/17 03:06:02;;;;;;;3.13;1.40;;;13.40;99.90;;;;;;5089707;28;20520;-73
2022/10/17 03:08:27;;;;;;;4.10;1.70;;;13.30;99.90;;;;;;5073890;28;20198;-74
2022/10/17 03:10:53;;;;;;;2.10;1.60;;;13.20;99.90;;;;;;5090690;28;20190;-74
2022/10/17 03:13:19;;;;;;;3.10;2.37;;;13.10;99.90;;;;;;5090760;28;20202;-74
2022/10/17 03:15:45;;;;;;;3.87;2.10;;;13.10;99.90;;;;;;5091083;28;20246;-73
2022/10/17 03:18:10;;;;;;;5.60;1.87;;;13.00;99.90;;;;;;5073988;28;20221;-74
2022/10/17 03:20:36;;;;;;;2.90;1.60;;;12.80;99.90;;;;;;5092089;28;20409;-74
2022/10/17 03:23:01;;;;;;;2.07;1.70;;;12.60;99.90;;;;;;5090706;28;20208;-73
2022/10/17 03:25:27;;;;;;;4.10;2.17;;;12.40;99.90;;;;;;5092042;28;20175;-74
2022/10/17 03:27:53;;;;;;;5.53;2.03;;;12.20;99.90;;;;;;5091979;28;20186;-73
2022/10/17 03:30:19;;;;;;;11.33;1.97;;;12.30;99.90;;;;;;5091975;28;20200;-74
2022/10/17 03:32:44;;;;;;;6.17;1.90;;;12.30;99.90;;;;;;5090410;28;20203;-73
2022/10/17 03:35:10;;;;;;;5.97;1.90;;;12.40;99.90;;;;;;5092142;28;20774;-73
2022/10/17 03:37:35;;;;;;;9.10;1.80;;;12.50;99.90;;;;;;5091625;28;20213;-73
2022/10/17 03:40:01;;;;;;;3.60;1.53;;;12.50;99.90;;;;;;5091694;28;20216;-73
2022/10/17 03:42:27;;;;;;;6.33;1.70;;;12.60;99.90;;;;;;5090031;28;20207;-73
2022/10/17 03:44:52;;;;;;;4.20;2.47;;;12.70;99.90;;;;;;5091560;28;20186;-73
2022/10/17 03:47:18;;;;;;;10.07;2.13;;;12.80;99.90;;;;;;5091443;28;20561;-73
2022/10/17 03:49:43;;;;;;;1.87;1.60;;;12.90;99.90;;;;;;5089766;28;20228;-73
2022/10/17 03:52:13;;;;;;;4.90;1.67;;;12.90;99.90;;;;;;5089807;28;20201;-73
2022/10/17 03:54:39;;;;;;;4.27;1.73;;;13.00;99.90;;;;;;5091199;28;20189;-73
2022/10/17 03:57:04;;;;;;;2.07;1.83;;;13.00;99.90;;;;;;5089700;28;20436;-73
2022/10/17 03:59:30;;;;;;;5.40;1.93;;;12.90;99.90;;;;;;5089992;28;20780;-73
2022/10/17 04:01:56;;;;;;;2.17;2.07;;;12.90;99.90;;;;;;5091054;28;20205;-73
2022/10/17 04:04:21;;;;;;;6.23;2.07;;;12.80;99.90;;;;;;5091757;28;20197;-73
2022/10/17 04:06:47;;;;;;;4.40;1.80;;;12.70;99.90;;;;;;5092185;28;20280;-74
2022/10/17 04:09:13;;;;;;;1.83;1.63;;;12.60;99.90;;;;;;5091930;28;20650;-73
2022/10/17 04:11:38;;;;;;;3.27;1.30;;;12.50;99.90;;;;;;5091338;28;20206;-73
2022/10/17 04:14:05;;;;;;;5.40;2.10;;;12.40;99.90;;;;;;5073391;28;20662;-74
2022/10/17 04:16:30;;;;;;;4.60;1.60;;;12.40;99.90;;;;;;5091285;28;20196;-73
2022/10/17 04:18:58;;;;;;;3.57;1.60;;;12.50;99.90;;;;;;5089980;28;20471;-74
2022/10/17 04:21:25;;;;;;;4.23;1.30;;;12.50;99.90;;;;;;5089953;28;20324;-73
2022/10/17 04:23:55;;;;;;;5.40;1.70;;;12.60;99.90;;;;;;5090176;28;20420;-73
2022/10/17 04:26:21;;;;;;;6.20;1.90;;;12.60;99.90;;;;;;5089372;28;20424;-74
2022/10/17 04:28:47;;;;;;;1.70;1.60;;;12.60;99.90;;;;;;5089774;28;20427;-73
2022/10/17 04:31:13;;;;;;;5.43;1.10;;;12.70;99.90;;;;;;5089375;28;20197;-73
2022/10/17 04:33:39;;;;;;;5.20;1.50;;;12.80;99.90;;;;;;5089327;28;20198;-73
2022/10/17 04:36:09;;;;;;;4.40;1.50;;;12.80;99.90;;;;;;5089525;28;20514;-73
2022/10/17 04:38:34;;;;;;;3.27;1.60;;;12.70;99.90;;;;;;5088855;28;20455;-73
2022/10/17 04:41:02;;;;;;;4.03;1.83;;;12.70;99.90;;;;;;5088657;28;20431;-72
2022/10/17 04:43:32;;;;;;;3.53;2.10;;;12.60;99.90;;;;;;5088752;28;20198;-72
2022/10/17 04:45:58;;;;;;;4.40;1.53;;;12.60;99.90;;;;;;5087541;28;20411;-74
2022/10/17 04:48:24;;;;;;;2.03;1.83;;;12.60;99.90;;;;;;5088641;28;21225;-72
2022/10/17 04:50:55;;;;;;;2.47;1.80;;;12.60;99.90;;;;;;5088674;28;20428;-72
2022/10/17 04:53:21;;;;;;;1.70;1.60;;;12.60;99.90;;;;;;5088296;28;20206;-72
2022/10/17 04:55:47;;;;;;;6.93;2.20;;;12.50;99.90;;;;;;5088239;28;20464;-73
2022/10/17 04:58:13;;;;;;;1.40;1.13;;;12.40;99.90;;;;;;5086718;28;20514;-74
2022/10/17 05:00:39;;;;;;;6.17;1.83;;;12.40;99.90;;;;;;5086891;28;20185;-73
2022/10/17 05:03:04;;;;;;;2.20;1.47;;;12.40;99.90;;;;;;5088725;28;21098;-73
2022/10/17 05:05:30;;;;;;;3.43;1.83;;;12.30;99.90;;;;;;5088892;28;20626;-73
2022/10/17 05:07:56;;;;;;;7.80;2.07;;;12.30;99.90;;;;;;5088861;28;20182;-73
2022/10/17 05:10:22;;;;;;;4.40;2.23;;;12.30;99.90;;;;;;5088778;28;20424;-73
2022/10/17 05:12:48;;;;;;;1.77;1.60;;;12.30;99.90;;;;;;5088726;28;20451;-73
2022/10/17 05:15:14;;;;;;;4.63;1.40;;;12.30;99.90;;;;;;5088712;28;20231;-73
2022/10/17 05:17:40;;;;;;;2.80;1.80;;;12.20;99.90;;;;;;5070282;28;20459;-73
2022/10/17 05:20:06;;;;;;;1.67;1.53;;;12.20;99.90;;;;;;5089115;28;20641;-73
2022/10/17 05:22:32;;;;;;;1.40;1.30;;;12.20;99.90;;;;;;5088212;28;20240;-73
2022/10/17 05:24:57;;;;;;;2.40;1.57;;;12.30;99.90;;;;;;5088258;28;20788;-73
2022/10/17 05:27:23;;;;;;;5.90;1.80;;;12.30;99.90;;;;;;5069792;28;20213;-73
2022/10/17 05:29:48;;;;;;;4.43;1.70;;;12.40;99.90;;;;;;5088093;28;20649;-74
2022/10/17 05:32:15;;;;;;;3.30;1.53;;;12.30;99.90;;;;;;5087941;28;20232;-73
2022/10/17 05:34:41;;;;;;;2.47;1.60;;;12.20;99.90;;;;;;5088328;28;20189;-73
2022/10/17 05:37:06;;;;;;;6.63;1.57;;;12.20;99.90;;;;;;5069593;28;20420;-73
2022/10/17 05:39:32;;;;;;;4.70;1.83;;;12.30;99.90;;;;;;5086282;28;20175;-73
2022/10/17 05:41:58;;;;;;;7.00;2.10;;;12.30;99.90;;;;;;5085982;28;20561;-73
2022/10/17 05:44:23;;;;;;;2.70;1.83;;;12.30;99.90;;;;;;5088029;28;20178;-73
2022/10/17 05:46:49;;;;;;;1.63;1.53;;;12.30;99.90;;;;;;5085964;28;20276;-74
2022/10/17 05:49:15;;;;;;;1.87;1.60;;;12.20;99.90;;;;;;5087685;28;20550;-73
2022/10/17 05:51:41;;;;;;;5.23;1.70;;;12.20;99.90;;;;;;5085789;28;20206;-72
2022/10/17 05:54:07;;;;;;;3.17;1.80;;;12.30;99.90;;;;;;5087397;28;21007;-73
2022/10/17 05:56:33;;;;;;;5.70;1.90;;;12.30;99.90;;;;;;5086911;28;20186;-73
2022/10/17 05:58:59;;;;;;;3.73;1.83;;;12.30;99.90;;;;;;5087006;28;20463;-73
2022/10/17 06:01:25;;;;;;;3.83;1.80;;;12.30;99.90;;;;;;5086968;28;20419;-73
2022/10/17 06:03:50;;;;;;;4.33;1.87;;;12.20;99.90;;;;;;5087141;28;20227;-73
2022/10/17 06:06:17;;;;;;;2.90;1.90;;;12.20;99.90;;;;;;5085474;28;20180;-73
2022/10/17 06:08:43;;;;;;;1.63;1.33;;;12.20;99.90;;;;;;5085196;28;20272;-73
2022/10/17 06:11:10;;;;;;;2.40;1.40;;;12.30;99.90;;;;;;5086869;28;20930;-73
2022/10/17 06:13:36;;;;;;;4.83;1.83;;;12.20;99.90;;;;;;5085427;28;20458;-73
2022/10/17 06:16:02;;;;;;;4.70;2.00;;;12.30;99.90;;;;;;5087013;28;20419;-73
2022/10/17 06:18:28;;;;;;;2.03;1.93;;;12.30;99.90;;;;;;5086842;28;20459;-73
2022/10/17 06:20:53;;;;;;;2.13;1.60;;;12.30;99.90;;;;;;5086917;28;20178;-72
2022/10/17 06:23:19;;;;;;;2.20;1.47;;;12.40;99.90;;;;;;5085295;28;20621;-73
2022/10/17 06:25:44;;;;;;;2.80;1.70;;;12.40;99.90;;;;;;5086762;28;20182;-73
2022/10/17 06:28:11;;;;;;;2.50;1.77;;;12.50;99.90;;;;;;5087097;28;20289;-73
2022/10/17 06:30:39;;;;;;;5.50;3.87;;;12.50;99.90;;;;;;5085300;28;20272;-73
2022/10/17 06:33:04;;;;;;;4.57;2.50;;;12.60;99.90;;;;;;5086644;28;20440;-73
2022/10/17 06:35:30;;;;;;;8.00;2.07;;;12.60;99.90;;;;;;5086706;28;20473;-73
2022/10/17 06:37:56;;;;;;;1.70;1.50;;;12.50;99.90;;;;;;5086566;28;20629;-73
2022/10/17 06:40:22;;;;;;;1.47;1.37;;;12.40;99.90;;;;;;5070235;28;20187;-73
2022/10/17 06:42:48;;;;;;;2.10;1.53;;;12.50;99.90;;;;;;5091048;28;20194;-73
2022/10/17 06:45:13;;;;;;;3.73;1.23;;;12.70;99.90;;;;;;5090721;28;20982;-73
2022/10/17 06:47:39;;;;;;;9.57;1.90;;;12.90;99.90;;;;;;5090515;28;20499;-74
2022/10/17 06:50:05;;;;;;;6.80;1.90;;;13.10;99.90;;;;;;5088745;28;20189;-73
2022/10/17 06:52:31;;;;;;;2.90;2.47;;;13.10;99.90;;;;;;5088965;28;20217;-73
2022/10/17 06:54:56;;;;;;;3.57;2.50;;;13.20;99.90;;;;;;5088740;28;20738;-73
2022/10/17 06:57:22;;;;;;;2.87;1.57;;;13.20;99.90;;;;;;5088716;28;20253;-73
2022/10/17 06:59:47;;;;;;;3.60;1.93;;;13.30;99.90;;;;;;5088809;28;20228;-73
2022/10/17 07:02:13;;;;;;;2.53;1.97;;;13.30;99.90;;;;;;5090071;28;20279;-73
2022/10/17 07:04:38;;;;;;;2.17;1.50;;;13.40;99.90;;;;;;5071726;28;20246;-73
2022/10/17 07:07:04;;;;;;;4.27;1.83;;;13.50;99.90;;;;;;5090074;28;20526;-73
2022/10/17 07:09:31;;;;;;;6.00;1.73;;;13.70;99.90;;;;;;5088386;28;20182;-73
2022/10/17 07:11:57;;;;;;;4.80;2.10;;;13.80;99.90;;;;;;5088642;28;20732;-73
2022/10/17 07:14:30;;;;;;;10.20;2.23;;;13.90;99.90;;;;;;5090100;28;20423;-74
2022/10/17 07:16:57;;;;;;;3.43;2.13;;;14.00;99.90;;;;;;5089847;28;20444;-73
2022/10/17 07:19:22;;;;;;;3.93;1.97;;;14.10;99.90;;;;;;5088168;28;20471;-73
2022/10/17 07:21:48;;;;;;;5.40;1.90;;;14.20;99.90;;;;;;5089722;28;20464;-73
2022/10/17 07:24:14;;;;;;;2.00;1.80;;;14.30;99.90;;;;;;5089771;28;20179;-73
2022/10/17 07:26:39;;;;;;;2.60;2.07;;;14.50;99.90;;;;;;5089755;28;20190;-73
2022/10/17 07:29:06;;;;;;;8.93;2.67;;;14.50;99.90;;;;;;5088176;28;20190;-73
2022/10/17 07:31:32;;;;;;;7.67;2.53;;;14.60;99.90;;;;;;5071407;28;20190;-73
2022/10/17 07:34:01;;;;;;;3.80;2.27;;;14.80;99.90;;;;;;5089577;28;20519;-73
2022/10/17 07:36:35;;;;;;;3.20;2.30;;;14.80;99.90;;;;;;5071267;28;20471;-74
2022/10/17 07:39:01;;;;;;;3.27;2.60;;;14.90;99.90;;;;;;5088257;28;20479;-73
2022/10/17 07:41:27;;;;;;;2.87;2.50;;;15.00;99.90;;;;;;5089361;28;20925;-73
2022/10/17 07:43:52;;;;;;;8.00;2.50;;;15.00;99.90;;;;;;5071182;28;20189;-74
2022/10/17 07:46:18;;;;;;;6.03;2.37;;;14.90;99.90;;;;;;5089612;28;20302;-74
2022/10/17 07:48:43;;;;;;;8.33;2.20;;;14.90;99.90;;;;;;5089378;28;20217;-73
2022/10/17 07:51:09;;;;;;;6.90;2.33;;;15.00;99.90;;;;;;5054181;28;20190;-73
2022/10/17 07:53:36;;;;;;;4.43;2.40;;;15.20;99.90;;;;;;5088015;28;20585;-73
2022/10/17 07:56:06;;;;;;;4.60;2.17;;;15.40;99.90;;;;;;5087726;28;20580;-73
2022/10/17 07:58:33;;;;;;;5.27;1.93;;;15.50;99.90;;;;;;5068335;22;20501;-77
2022/10/17 08:01:07;;;;;;;4.80;1.80;;;15.60;99.90;;;;;;5041329;28;20550;-77
2022/10/17 08:03:33;;;;;;;10.10;2.30;;;15.70;99.90;;;;;;5067698;28;20430;-76
2022/10/17 08:06:00;;;;;;;4.17;2.40;;;15.90;99.90;;;;;;5067441;28;20991;-74
2022/10/17 08:08:26;;;;;;;4.57;1.70;;;16.00;99.90;;;;;;5067771;28;20486;-77
2022/10/17 08:10:53;;;;;;;5.00;1.67;;;16.00;99.90;;;;;;5084427;28;20485;-76
2022/10/17 08:13:20;;;;;;;6.50;2.10;;;16.20;99.90;;;;;;5084373;28;20450;-76
2022/10/17 08:15:46;;;;;;;3.43;2.20;;;16.30;99.90;;;;;;5067191;28;20429;-77
2022/10/17 08:18:13;;;;;;;5.90;2.20;;;16.40;99.90;;;;;;5067038;28;20481;-77
2022/10/17 08:20:40;;;;;;;3.37;2.30;;;16.50;99.90;;;;;;5067027;28;20496;-77
2022/10/17 08:23:05;;;;;;;7.27;1.90;;;16.60;99.90;;;;;;5066780;28;21119;-76
2022/10/17 08:25:32;;;;;;;4.60;2.33;;;16.80;99.90;;;;;;5066980;28;20578;-76
2022/10/17 08:27:58;;;;;;;3.10;2.20;;;16.90;99.90;;;;;;5067059;28;20216;-76
2022/10/17 08:30:24;;;;;;;6.03;2.50;;;17.00;99.90;;;;;;5066283;28;20515;-76
2022/10/17 08:32:50;;;;;;;5.50;2.67;;;17.20;99.90;;;;;;5083434;28;20814;-77
2022/10/17 08:35:16;;;;;;;3.97;2.40;;;17.30;99.90;;;;;;5068225;28;20428;-76
2022/10/17 08:37:41;;;;;;;3.50;2.53;;;17.50;99.90;;;;;;5068130;28;20248;-76
2022/10/17 08:40:19;;;;;;;7.17;2.17;;;17.70;99.90;;;;;;5066783;28;20959;-76
2022/10/17 08:42:49;;;;;;;8.17;1.97;;;18.00;99.90;;;;;;5067727;28;20185;-76
2022/10/17 08:45:22;;;;;;;7.33;2.27;;;18.50;99.90;;;;;;5066408;28;20518;-77
2022/10/17 08:48:04;;;;;;;5.03;2.30;;;19.30;99.90;;;;;;5066473;28;20463;-76
2022/10/17 08:50:38;;;;;;;2.80;2.47;;;20.20;99.90;;;;;;5067980;28;20441;-75
2022/10/17 08:53:12;;;;;;;2.07;1.80;;;20.90;99.90;;;;;;5068512;28;20425;-76
2022/10/17 08:55:45;;;;;;;6.90;2.33;;;21.50;99.90;;;;;;5068670;28;20420;-76
2022/10/17 08:58:29;;;;;;;10.00;2.57;;;21.90;99.90;;;;;;5083715;28;20585;-76
2022/10/17 09:01:04;;;;;;;2.77;2.13;;;22.40;99.90;;;;;;5066724;28;20474;-75
2022/10/17 09:03:54;;;;;;;9.20;2.60;;;22.70;99.90;;;;;;5065833;28;20439;-77
2022/10/17 09:06:28;;;;;;;3.40;1.97;;;23.30;99.90;;;;;;5066409;28;20429;-76
2022/10/17 09:09:14;;;;;;;9.00;1.90;;;24.10;99.90;;;;;;5066593;28;20418;-77
2022/10/17 09:12:02;;;;;;;4.13;1.83;;;24.40;99.90;;;;;;5067757;28;20447;-76
2022/10/17 09:14:57;;;;;;;2.87;1.90;;;25.00;99.90;;;;;;5067497;28;20476;-76
2022/10/17 09:17:41;;;;;;;7.60;1.80;;;25.70;99.20;;;;;;5066048;28;20453;-76
2022/10/17 09:20:13;;;;;;;4.53;2.07;;;25.70;97.90;;;;;;5066037;28;20500;-75
2022/10/17 09:23:02;;;;;;;3.97;2.30;;;25.80;98.20;;;;;;5065926;28;20424;-77
2022/10/17 09:25:40;;;;;;;3.00;1.83;;;25.80;97.80;;;;;;5065737;28;20865;-76
2022/10/17 09:28:20;;;;;;;2.10;1.90;;;25.90;97.60;;;;;;5067805;28;20427;-77
2022/10/17 09:30:52;;;;;;;7.37;2.83;;;26.10;97.00;;;;;;5067640;28;20439;-76
2022/10/17 09:33:21;;;;;;;10.27;2.07;;;26.00;96.80;;;;;;5067656;28;20428;-77
2022/10/17 09:35:48;;;;;;;2.50;2.30;;;26.00;96.30;;;;;;5066329;28;20919;-77
2022/10/17 09:38:24;;;;;;;9.30;1.80;;;26.00;96.50;;;;;;5065720;28;21000;-78
2022/10/17 09:40:59;;;;;;;8.93;2.03;;;26.40;97.30;;;;;;5067533;28;20536;-76
2022/10/17 09:43:25;;;;;;;4.30;1.70;;;26.90;96.50;;;;;;5066593;28;20471;-75
2022/10/17 09:46:05;;;;;;;10.30;2.17;;;27.30;96.70;;;;;;5067669;28;20504;-76
2022/10/17 09:48:33;;;;;;;5.13;2.00;;;28.10;94.60;;;;;;5066235;28;20428;-76
2022/10/17 09:51:02;;;;;;;6.57;2.13;;;28.30;93.70;;;;;;5065923;28;20948;-77
2022/10/17 09:53:36;;;;;;;5.40;2.00;;;28.70;93.20;;;;;;5066194;28;20528;-77
2022/10/17 09:56:10;;;;;;;15.30;2.07;;;28.90;92.40;;;;;;5083699;28;20553;-77
2022/10/17 09:58:48;;;;;;;1.60;1.50;;;29.10;91.80;;;;;;5083150;28;20477;-77
2022/10/17 10:01:15;;;;;;;7.80;1.77;;;29.20;90.00;;;;;;5068299;28;20461;-76
2022/10/17 10:03:41;;;;;;;4.33;1.70;;;29.40;89.60;;;;;;5066638;28;20921;-77
2022/10/17 10:06:19;;;;;;;3.63;2.00;;;29.50;87.80;;;;;;5049437;28;20952;-77
2022/10/17 10:09:02;;;;;;;7.53;2.17;;;29.60;86.60;;;;;;5083110;28;20190;-77
2022/10/17 10:11:54;;;;;;;2.30;1.80;;;29.80;84.40;;;;;;5066491;28;20455;-77
2022/10/17 10:14:32;;;;;;;3.20;1.80;;;29.80;85.10;;;;;;5085013;28;20444;-77
2022/10/17 10:16:58;;;;;;;5.70;1.83;;;29.70;86.10;;;;;;5070450;28;20498;-76
2022/10/17 10:19:31;;;;;;;8.53;1.67;;;29.70;87.50;;;;;;5071582;28;20552;-76
2022/10/17 10:21:59;;;;;;;5.40;1.50;;;30.00;85.20;;;;;;5071548;28;20438;-77
2022/10/17 10:24:26;;;;;;;5.00;1.70;;;30.30;84.60;;;;;;5086926;28;20928;-77
2022/10/17 10:26:54;;;;;;;1.70;1.60;;;30.20;83.90;;;;;;5070178;28;20481;-76
2022/10/17 10:29:31;;;;;;;5.23;1.57;;;30.60;81.20;;;;;;5071707;28;20425;-77
2022/10/17 10:32:35;;;;;;;3.40;1.90;;;30.40;82.10;;;;;;5069629;28;20806;-76
2022/10/17 10:35:06;;;;;;;2.20;1.77;;;30.20;84.20;;;;;;5069821;28;20428;-76
2022/10/17 10:37:40;;;;;;;8.00;2.27;;;29.90;83.20;;;;;;5071808;28;20460;-75
2022/10/17 10:40:17;;;;;;;6.00;2.27;;;30.40;82.40;;;;;;5071217;28;20461;-76
2022/10/17 10:42:47;;;;;;;5.13;2.07;;;30.50;83.00;;;;;;5085931;28;20931;-75
2022/10/17 10:45:41;;;;;;;5.13;1.40;;;30.70;84.20;;;;;;5068812;28;20417;-77
2022/10/17 10:48:26;;;;;;;9.00;2.03;;;30.80;82.80;;;;;;5065393;28;21031;-78
2022/10/17 10:51:00;;;;;;;4.67;1.87;;;30.80;83.50;;;;;;5068831;28;20567;-76
2022/10/17 10:53:56;;;;;;;7.27;1.63;;;31.00;82.20;;;;;;5068958;28;20437;-78
2022/10/17 10:56:47;;;;;;;7.60;1.90;;;30.40;81.60;;;;;;5069201;28;20432;-77
2022/10/17 10:59:30;;;;;;;12.23;1.93;;;30.00;86.20;;;;;;5069030;28;20472;-77
2022/10/17 11:02:14;;;;;;;5.70;2.00;;;30.20;83.70;;;;;;5086498;28;20471;-77
2022/10/17 11:05:09;;;;;;;10.20;1.97;;;30.10;87.40;;;;;;5069055;28;20421;-76
2022/10/17 11:07:45;;;;;;;2.63;1.30;;;29.90;85.80;;;;;;5070058;28;20529;-76
2022/10/17 11:10:23;;;;;;;5.23;1.80;;;29.80;85.60;;;;;;5069477;28;20530;-75
2022/10/17 11:13:09;;;;;;;1.80;1.70;;;30.20;88.40;;;;;;5069844;28;20472;-77
2022/10/17 11:15:39;;;;;;;3.43;2.10;;;29.90;83.40;;;;;;5069966;28;20453;-76
2022/10/17 11:18:06;;;;;;;7.60;2.10;;;29.70;84.50;;;;;;5069533;28;20453;-76
2022/10/17 11:20:54;;;;;;;9.07;1.67;;;29.70;84.80;;;;;;5069613;28;20429;-77
2022/10/17 11:23:50;;;;;;;11.37;2.97;;;29.50;85.40;;;;;;5054001;28;20433;-75
2022/10/17 11:26:24;;;;;;;5.30;1.63;;;29.20;85.50;;;;;;5069620;28;20421;-76
2022/10/17 11:28:52;;;;;;;6.20;1.80;;;29.30;87.80;;;;;;5069942;28;20429;-77
2022/10/17 11:31:20;;;;;;;2.50;1.43;;;29.20;85.40;;;;;;5070041;28;20488;-76
2022/10/17 11:33:57;;;;;;;6.50;2.03;;;28.90;86.40;;;;;;5069273;28;20479;-76
2022/10/17 11:36:33;;;;;;;2.90;1.70;;;29.00;86.60;;;;;;5067925;28;20444;-79
2022/10/17 11:39:05;;;;;;;3.97;1.53;;;29.00;85.00;;;;;;5067939;28;20476;-77
2022/10/17 11:41:43;;;;;;;5.30;1.67;;;28.90;86.30;;;;;;5069085;28;20459;-76
2022/10/17 11:44:34;;;;;;;1.77;1.63;;;28.80;86.40;;;;;;5068210;28;20562;-76
2022/10/17 11:47:26;;;;;;;3.53;1.63;;;28.90;86.30;;;;;;5085361;28;20429;-76
2022/10/17 11:50:04;;;;;;;8.33;1.40;;;29.00;86.60;;;;;;5056723;28;20424;-75
2022/10/17 11:53:02;;;;;;;4.93;1.40;;;29.10;81.40;;;;;;5069868;28;20426;-76
2022/10/17 11:55:30;;;;;;;2.80;1.80;;;29.00;81.70;;;;;;5057507;28;20437;-78
2022/10/17 11:58:13;;;;;;;7.20;1.50;;;28.90;77.40;;;;;;5069425;28;20496;-77
2022/10/17 12:01:17;;;;;;;2.73;1.67;;;28.70;76.90;;;;;;5067777;28;20960;-78
2022/10/17 12:04:20;;;;;;;6.93;1.73;;;28.40;76.00;;;;;;5063181;28;20933;-76
2022/10/17 12:07:11;;;;;;;2.80;1.30;;;28.30;76.40;;;;;;5066983;28;20428;-77
2022/10/17 12:09:42;;;;;;;10.43;2.03;;;28.10;75.00;;;;;;5066607;28;20424;-77
2022/10/17 12:12:07;;;;;;;7.30;1.50;;;27.90;73.60;;;;;;5083971;28;20445;-75
2022/10/17 12:14:40;;;;;;;7.67;1.80;;;28.00;78.60;;;;;;5067213;28;20448;-77
2022/10/17 12:17:28;;;;;;;4.50;1.37;;;28.00;77.80;;;;;;5067167;28;20194;-76
2022/10/17 12:20:19;;;;;;;5.23;1.63;;;27.90;76.80;;;;;;5066926;28;20443;-77
2022/10/17 12:22:50;;;;;;;2.40;1.67;;;27.90;75.50;;;;;;5066694;28;20432;-76
2022/10/17 12:25:28;;;;;;;7.17;1.63;;;27.80;76.20;;;;;;5068316;28;20822;-77
2022/10/17 12:28:06;;;;;;;6.13;1.73;;;27.70;74.30;;;;;;5066707;28;20463;-76
2022/10/17 12:30:33;;;;;;;5.80;2.00;;;27.80;75.90;;;;;;5066814;28;20449;-76
2022/10/17 12:33:22;;;;;;;3.97;1.30;;;27.60;73.60;;;;;;5068318;28;20502;-75
2022/10/17 12:35:50;;;;;;;2.43;1.50;;;27.70;74.60;;;;;;5068471;28;20405;-76
2022/10/17 12:38:23;;;;;;;4.20;1.73;;;27.50;74.50;;;;;;5067009;28;20473;-76
2022/10/17 12:40:51;;;;;;;4.97;2.27;;;27.40;75.10;;;;;;5068659;28;20468;-76
2022/10/17 12:43:17;;;;;;;2.13;1.70;;;27.40;75.50;;;;;;5068213;28;20414;-76
2022/10/17 12:45:52;;;;;;;2.90;2.03;;;27.30;74.90;;;;;;5066317;28;20490;-77
2022/10/17 12:48:36;;;;;;;7.67;2.70;;;27.30;75.50;;;;;;5066251;28;20281;-76
2022/10/17 12:51:21;;;;;;;6.30;1.80;;;27.50;76.60;;;;;;5066381;28;20476;-76
2022/10/17 12:54:00;;;;;;;4.50;1.30;;;27.20;76.20;;;;;;5068305;28;20417;-77
2022/10/17 12:56:40;;;;;;;3.33;1.30;;;27.00;75.80;;;;;;5067284;28;20452;-76
2022/10/17 12:59:25;;;;;;;5.40;1.47;;;27.00;75.10;;;;;;5068320;28;20525;-75
2022/10/17 13:01:58;;;;;;;6.73;1.70;;;27.00;76.90;;;;;;5066148;28;20518;-77
2022/10/17 13:04:25;;;;;;;1.97;1.53;;;27.00;75.70;;;;;;5066372;28;20459;-75
2022/10/17 13:06:54;;;;;;;3.17;1.43;;;26.70;72.70;;;;;;5066713;28;20437;-76
2022/10/17 13:09:31;;;;;;;2.97;1.20;;;26.60;75.90;;;;;;5066146;28;20437;-76